createdAt,value
2022-12-03T00:01:18.547Z,11.75
2022-12-03T00:04:04.663Z,11.95
2022-12-03T00:06:50.754Z,12.10
2022-12-03T00:09:36.655Z,12.57
2022-12-03T00:12:22.470Z,11.88
2022-12-03T00:15:09.401Z,12.50
2022-12-03T00:17:55.154Z,11.70
2022-12-03T00:20:40.807Z,12.43
2022-12-03T00:23:26.600Z,12.07
2022-12-03T00:26:12.092Z,12.35
2022-12-03T00:28:57.961Z,12.15
2022-12-03T00:31:45.581Z,12.65
2022-12-03T00:34:31.387Z,12.65
2022-12-03T00:37:17.295Z,13.07
2022-12-03T00:40:05.251Z,12.55
2022-12-03T00:42:51.032Z,12.98
2022-12-03T00:45:37.018Z,13.48
2022-12-03T00:48:22.838Z,12.98
2022-12-03T00:51:08.472Z,13.93
2022-12-03T00:53:54.486Z,14.15
2022-12-03T00:56:40.023Z,13.60
2022-12-03T00:59:25.656Z,13.48
2022-12-03T01:02:11.550Z,12.32
2022-12-03T01:04:57.564Z,13.25
2022-12-03T01:07:43.892Z,13.10
2022-12-03T01:10:29.917Z,14.30
2022-12-03T01:13:15.960Z,14.38
2022-12-03T01:16:01.385Z,12.65
2022-12-03T01:18:47.451Z,13.43
2022-12-03T01:21:33.473Z,13.77
2022-12-03T01:24:20.177Z,13.57
2022-12-03T01:27:08.071Z,13.05
2022-12-03T01:29:53.468Z,14.30
2022-12-03T01:32:39.497Z,13.35
2022-12-03T01:35:24.933Z,13.23
2022-12-03T01:38:10.431Z,12.10
2022-12-03T01:40:56.326Z,12.20
2022-12-03T01:43:42.095Z,11.90
2022-12-03T01:46:37.309Z,12.85
2022-12-03T01:49:53.120Z,12.60
2022-12-03T01:52:38.970Z,12.35
2022-12-03T01:55:26.297Z,12.00
2022-12-03T01:58:15.371Z,13.35
2022-12-03T02:01:06.861Z,11.70
2022-12-03T02:03:52.630Z,12.80
2022-12-03T02:06:38.742Z,12.35
2022-12-03T02:09:24.504Z,12.63
2022-12-03T02:12:10.341Z,12.30
2022-12-03T02:14:56.883Z,13.23
2022-12-03T02:17:43.201Z,13.02
2022-12-03T02:20:33.309Z,12.07
2022-12-03T02:23:30.953Z,17.88
2022-12-03T02:26:16.612Z,13.40
2022-12-03T02:29:02.565Z,11.70
2022-12-03T02:31:48.267Z,11.15
2022-12-03T02:34:45.491Z,13.35
2022-12-03T02:37:34.062Z,10.73
2022-12-03T02:40:24.151Z,11.63
2022-12-03T02:43:10.627Z,11.20
2022-12-03T02:45:59.932Z,10.75
2022-12-03T02:48:45.728Z,11.18
2022-12-03T02:51:31.719Z,11.68
2022-12-03T02:54:17.238Z,10.77
2022-12-03T02:57:03.003Z,11.10
2022-12-03T02:59:48.932Z,10.60
2022-12-03T03:02:36.613Z,11.40
2022-12-03T03:05:24.016Z,12.15
2022-12-03T03:08:10.581Z,12.05
2022-12-03T03:10:57.392Z,10.50
2022-12-03T03:13:43.574Z,11.60
2022-12-03T03:16:29.671Z,11.13
2022-12-03T03:19:15.308Z,11.88
2022-12-03T03:22:00.973Z,11.60
2022-12-03T03:24:46.484Z,11.85
2022-12-03T03:27:33.218Z,11.60
2022-12-03T03:30:18.817Z,11.45
2022-12-03T03:33:04.892Z,10.65
2022-12-03T03:35:51.382Z,11.90
2022-12-03T03:38:38.207Z,10.57
2022-12-03T03:41:26.680Z,11.38
2022-12-03T03:44:14.098Z,10.95
2022-12-03T03:47:00.446Z,11.07
2022-12-03T03:49:47.894Z,10.43
2022-12-03T03:52:34.398Z,11.10
2022-12-03T03:55:20.596Z,10.55
2022-12-03T03:58:06.190Z,11.13
2022-12-03T04:00:52.022Z,10.73
2022-12-03T04:03:37.511Z,11.50
2022-12-03T04:06:23.280Z,12.45
2022-12-03T04:09:09.386Z,11.07
2022-12-03T04:12:13.475Z,11.57
2022-12-03T04:14:59.615Z,10.63
2022-12-03T04:17:45.511Z,11.00
2022-12-03T04:20:31.299Z,11.73
2022-12-03T04:23:17.318Z,11.38
2022-12-03T04:26:21.536Z,11.80
2022-12-03T04:29:06.903Z,11.35
2022-12-03T04:32:10.732Z,11.88
2022-12-03T04:35:16.200Z,12.15
2022-12-03T04:38:02.784Z,12.02
2022-12-03T04:41:06.196Z,12.00
2022-12-03T04:44:10.662Z,11.30
2022-12-03T04:46:56.168Z,11.90
2022-12-03T04:49:44.707Z,12.32
2022-12-03T04:52:30.544Z,11.77
2022-12-03T04:55:17.780Z,12.13
2022-12-03T04:58:04.020Z,12.70
2022-12-03T05:00:49.776Z,12.15
2022-12-03T05:03:35.841Z,11.90
2022-12-03T05:06:21.449Z,12.70
2022-12-03T05:09:06.979Z,12.90
2022-12-03T05:11:52.807Z,13.20
2022-12-03T05:14:38.504Z,12.63
2022-12-03T05:17:24.180Z,12.63
2022-12-03T05:20:28.548Z,13.18
2022-12-03T05:23:14.751Z,12.00
2022-12-03T05:26:00.468Z,12.50
2022-12-03T05:28:45.983Z,12.90
2022-12-03T05:31:31.668Z,13.52
2022-12-03T05:34:17.588Z,13.65
2022-12-03T05:37:03.031Z,13.77
2022-12-03T05:39:48.576Z,14.27
2022-12-03T05:42:52.456Z,14.40
2022-12-03T05:45:41.676Z,14.50
2022-12-03T05:48:27.560Z,14.90
2022-12-03T05:51:13.358Z,14.93
2022-12-03T05:53:58.939Z,16.40
2022-12-03T05:56:44.326Z,16.77
2022-12-03T05:59:30.145Z,14.95
2022-12-03T06:02:15.731Z,16.42
2022-12-03T06:05:01.594Z,14.85
2022-12-03T06:07:48.714Z,14.50
2022-12-03T06:10:34.470Z,15.57
2022-12-03T06:13:20.062Z,15.30
2022-12-03T06:16:06.170Z,17.05
2022-12-03T06:18:52.243Z,16.95
2022-12-03T06:21:38.088Z,15.23
2022-12-03T06:24:23.603Z,17.33
2022-12-03T06:27:09.493Z,17.40
2022-12-03T06:29:55.076Z,16.08
2022-12-03T06:32:41.030Z,15.57
2022-12-03T06:35:26.827Z,15.88
2022-12-03T06:38:12.263Z,17.00
2022-12-03T06:40:58.055Z,15.68
2022-12-03T06:43:43.491Z,16.48
2022-12-03T06:46:29.207Z,16.88
2022-12-03T06:49:15.068Z,17.38
2022-12-03T06:52:01.417Z,18.00
2022-12-03T06:54:46.992Z,17.27
2022-12-03T06:57:32.936Z,17.20
2022-12-03T07:00:18.951Z,17.23
2022-12-03T07:03:04.838Z,16.63
2022-12-03T07:05:50.673Z,17.25
2022-12-03T07:08:36.133Z,16.95
2022-12-03T07:11:33.468Z,18.38
2022-12-03T07:14:18.921Z,18.30
2022-12-03T07:17:04.336Z,19.48
2022-12-03T07:19:50.601Z,20.40
2022-12-03T07:22:36.509Z,19.40
2022-12-03T07:25:23.764Z,19.17
2022-12-03T07:28:09.679Z,20.38
2022-12-03T07:30:55.250Z,20.00
2022-12-03T07:33:40.857Z,20.38
2022-12-03T07:36:27.498Z,19.50
2022-12-03T07:39:13.608Z,18.77
2022-12-03T07:41:59.195Z,19.10
2022-12-03T07:44:45.021Z,19.45
2022-12-03T07:47:30.937Z,19.02
2022-12-03T07:50:16.968Z,19.13
2022-12-03T07:53:02.646Z,18.95
2022-12-03T07:55:48.379Z,18.42
2022-12-03T07:58:34.124Z,18.90
2022-12-03T08:01:19.771Z,17.42
2022-12-03T08:04:05.786Z,18.85
2022-12-03T08:06:51.625Z,17.80
2022-12-03T08:09:40.239Z,17.95
2022-12-03T08:12:49.716Z,16.92
2022-12-03T08:15:39.531Z,16.23
2022-12-03T08:18:25.650Z,16.25
2022-12-03T08:21:15.070Z,17.25
2022-12-03T08:24:20.218Z,16.70
2022-12-03T08:27:16.755Z,16.95
2022-12-03T08:30:04.824Z,17.05
2022-12-03T08:32:51.543Z,18.15
2022-12-03T08:35:37.251Z,17.65
2022-12-03T08:38:24.758Z,16.90
2022-12-03T08:41:15.919Z,18.02
2022-12-03T08:44:05.147Z,17.58
2022-12-03T08:46:56.398Z,18.42
2022-12-03T08:49:45.938Z,17.13
2022-12-03T08:52:33.434Z,18.02
2022-12-03T08:55:38.235Z,18.52
2022-12-03T08:58:40.524Z,16.90
2022-12-03T09:01:44.281Z,17.92
2022-12-03T09:04:44.060Z,16.17
2022-12-03T09:07:29.584Z,17.08
2022-12-03T09:10:15.811Z,17.10
2022-12-03T09:13:01.857Z,16.55
2022-12-03T09:15:47.740Z,19.02
2022-12-03T09:18:33.901Z,18.00
2022-12-03T09:21:19.498Z,19.15
2022-12-03T09:24:05.071Z,18.33
2022-12-03T09:26:51.092Z,16.88
2022-12-03T09:29:36.999Z,17.88
2022-12-03T09:32:22.915Z,17.10
2022-12-03T09:35:09.116Z,16.35
2022-12-03T09:37:54.934Z,16.55
2022-12-03T09:40:41.248Z,17.15
2022-12-03T09:44:02.619Z,18.83
2022-12-03T09:46:40.992Z,14.90
2022-12-03T09:49:27.655Z,15.98
2022-12-03T09:52:22.287Z,16.40
2022-12-03T09:55:15.780Z,16.60
2022-12-03T09:58:01.286Z,14.57
2022-12-03T10:00:50.275Z,17.05
2022-12-03T10:03:38.035Z,17.80
2022-12-03T10:06:24.023Z,14.10
2022-12-03T10:09:12.436Z,14.52
2022-12-03T10:11:59.818Z,14.20
2022-12-03T10:14:45.651Z,14.63
2022-12-03T10:17:31.936Z,14.23
2022-12-03T10:20:20.107Z,14.98
2022-12-03T10:23:05.887Z,14.30
2022-12-03T10:25:56.114Z,13.40
2022-12-03T10:28:44.072Z,13.40
2022-12-03T10:31:36.530Z,14.93
2022-12-03T10:34:26.019Z,12.90
2022-12-03T10:37:14.645Z,14.02
2022-12-03T10:40:12.941Z,13.30
2022-12-03T10:43:16.029Z,13.63
2022-12-03T10:46:04.221Z,13.77
2022-12-03T10:49:20.048Z,13.75
2022-12-03T10:52:07.126Z,12.90
2022-12-03T10:54:53.925Z,12.15
2022-12-03T10:57:45.262Z,11.48
2022-12-03T11:00:31.493Z,11.05
2022-12-03T11:03:25.840Z,10.23
2022-12-03T11:06:20.209Z,9.50
2022-12-03T11:09:15.024Z,9.40
2022-12-03T11:12:05.629Z,9.75
2022-12-03T11:14:51.927Z,10.23
2022-12-03T11:17:52.376Z,8.95
2022-12-03T11:20:47.282Z,7.03
2022-12-03T11:23:58.960Z,7.22
2022-12-03T11:26:44.686Z,7.65
2022-12-03T11:29:47.191Z,8.55
2022-12-03T11:32:38.923Z,8.07
2022-12-03T11:35:24.606Z,8.20
2022-12-03T11:38:38.386Z,8.30
2022-12-03T11:44:32.688Z,7.93
2022-12-03T11:47:18.564Z,8.10
2022-12-03T11:50:22.674Z,7.15
2022-12-03T11:53:14.569Z,8.02
2022-12-03T11:56:08.792Z,7.85
2022-12-03T11:59:01.058Z,7.88
2022-12-03T12:01:47.347Z,8.02
2022-12-03T12:04:43.051Z,8.45
2022-12-03T12:07:36.652Z,8.00
2022-12-03T12:10:43.444Z,8.50
2022-12-03T12:13:30.540Z,7.47
2022-12-03T12:16:51.662Z,7.78
2022-12-03T12:19:43.823Z,7.90
2022-12-03T12:22:30.923Z,7.65
2022-12-03T12:25:37.571Z,7.32
2022-12-03T12:28:23.480Z,10.15
2022-12-03T12:31:12.418Z,9.15
2022-12-03T12:33:57.981Z,8.73
2022-12-03T12:36:43.982Z,8.55
2022-12-03T12:39:31.555Z,8.30
2022-12-03T12:42:38.504Z,9.63
2022-12-03T12:45:27.107Z,8.10
2022-12-03T12:48:12.898Z,8.20
2022-12-03T12:50:58.763Z,8.27
2022-12-03T12:53:44.769Z,9.75
2022-12-03T12:56:32.408Z,9.90
2022-12-03T12:59:20.470Z,9.80
2022-12-03T13:02:30.899Z,9.70
2022-12-03T13:05:17.791Z,9.82
2022-12-03T13:08:10.137Z,10.48
2022-12-03T13:10:58.460Z,10.53
2022-12-03T13:13:44.673Z,11.32
2022-12-03T13:16:32.757Z,10.90
2022-12-03T13:19:43.307Z,11.35
2022-12-03T13:22:33.517Z,11.10
2022-12-03T13:26:00.314Z,11.43
2022-12-03T13:31:34.247Z,11.95
2022-12-03T13:34:26.975Z,12.02
2022-12-03T13:37:18.602Z,13.50
2022-12-03T13:40:22.636Z,14.35
2022-12-03T13:43:16.220Z,14.45
2022-12-03T13:46:05.572Z,14.98
2022-12-03T13:48:51.247Z,15.70
2022-12-03T13:51:38.342Z,16.00
2022-12-03T13:54:27.566Z,15.60
2022-12-03T13:57:14.435Z,15.50
2022-12-03T14:00:00.153Z,15.00
2022-12-03T14:02:45.596Z,14.77
2022-12-03T14:05:31.520Z,15.95
2022-12-03T14:08:32.096Z,16.13
2022-12-03T14:11:36.250Z,16.08
2022-12-03T14:14:22.143Z,29.33
2022-12-03T14:17:09.561Z,16.35
2022-12-03T14:19:55.327Z,17.90
2022-12-03T14:22:41.390Z,16.88
2022-12-03T14:25:27.026Z,16.92
2022-12-03T14:28:12.890Z,16.98
2022-12-03T14:30:58.537Z,15.88
2022-12-03T14:33:44.349Z,16.77
2022-12-03T14:36:30.244Z,16.50
2022-12-03T14:39:15.777Z,16.33
2022-12-03T14:42:13.072Z,16.10
2022-12-03T14:44:58.369Z,17.08
2022-12-03T14:47:43.938Z,15.93
2022-12-03T14:50:30.200Z,14.90
2022-12-03T14:53:15.825Z,14.52
2022-12-03T14:56:01.590Z,15.73
2022-12-03T14:58:49.048Z,15.43
2022-12-03T15:01:34.869Z,16.48
2022-12-03T15:04:20.712Z,16.98
2022-12-03T15:07:07.131Z,17.58
2022-12-03T15:09:53.052Z,18.00
2022-12-03T15:12:38.788Z,19.45
2022-12-03T15:15:25.739Z,19.85
2022-12-03T15:18:12.639Z,18.40
2022-12-03T15:20:58.003Z,17.45
2022-12-03T15:23:43.675Z,18.98
2022-12-03T15:26:30.492Z,17.80
2022-12-03T15:29:16.064Z,18.38
2022-12-03T15:32:03.170Z,19.13
2022-12-03T15:34:51.336Z,18.73
2022-12-03T15:37:37.056Z,19.20
2022-12-03T15:40:25.702Z,18.73
2022-12-03T15:43:11.590Z,18.65
2022-12-03T15:45:58.666Z,19.50
2022-12-03T15:48:44.405Z,20.40
2022-12-03T15:51:29.860Z,19.05
2022-12-03T15:54:15.637Z,19.75
2022-12-03T15:57:01.544Z,19.77
2022-12-03T15:59:47.124Z,19.50
2022-12-03T16:02:36.297Z,19.02
2022-12-03T16:05:22.037Z,20.20
2022-12-03T16:08:08.316Z,19.73
2022-12-03T16:10:54.298Z,19.80
2022-12-03T16:13:40.198Z,19.05
2022-12-03T16:16:26.166Z,21.13
2022-12-03T16:19:11.955Z,21.40
2022-12-03T16:21:58.272Z,20.60
2022-12-03T16:24:46.589Z,22.48
2022-12-03T16:27:32.237Z,22.85
2022-12-03T16:30:18.449Z,22.92
2022-12-03T16:33:04.107Z,23.08
2022-12-03T16:35:49.837Z,23.05
2022-12-03T16:38:35.843Z,22.90
2022-12-03T16:41:22.412Z,23.70
2022-12-03T16:44:09.784Z,22.02
2022-12-03T16:46:55.624Z,22.98
2022-12-03T16:49:41.481Z,25.48
2022-12-03T16:52:27.336Z,25.90
2022-12-03T16:55:13.187Z,24.30
2022-12-03T16:57:58.733Z,24.08
2022-12-03T17:00:44.320Z,23.85
2022-12-03T17:03:33.778Z,23.40
2022-12-03T17:06:20.121Z,25.55
2022-12-03T17:09:05.467Z,24.75
2022-12-03T17:11:51.351Z,25.73
2022-12-03T17:14:37.256Z,25.83
2022-12-03T17:17:22.992Z,24.25
2022-12-03T17:20:08.875Z,25.75
2022-12-03T17:22:54.549Z,24.90
2022-12-03T17:25:40.092Z,25.48
2022-12-03T17:28:25.503Z,25.83
2022-12-03T17:31:11.894Z,26.23
2022-12-03T17:33:57.908Z,25.27
2022-12-03T17:36:43.296Z,27.00
2022-12-03T17:39:29.115Z,25.88
2022-12-03T17:42:14.775Z,25.20
2022-12-03T17:45:00.482Z,27.13
2022-12-03T17:47:45.964Z,27.85
2022-12-03T17:50:31.561Z,27.20
2022-12-03T17:53:17.152Z,28.23
2022-12-03T17:56:02.451Z,28.58
2022-12-03T17:58:48.379Z,27.83
2022-12-03T18:01:34.160Z,29.85
2022-12-03T18:04:20.027Z,31.45
2022-12-03T18:07:05.774Z,28.92
2022-12-03T18:09:51.833Z,28.67
2022-12-03T18:12:37.667Z,26.98
2022-12-03T18:15:23.067Z,29.20
2022-12-03T18:18:09.010Z,27.17
2022-12-03T18:20:54.784Z,30.25
2022-12-03T18:23:40.709Z,27.15
2022-12-03T18:26:26.479Z,25.60
2022-12-03T18:29:12.038Z,27.42
2022-12-03T18:31:57.702Z,30.08
2022-12-03T18:34:43.758Z,31.13
2022-12-03T18:37:29.907Z,30.33
2022-12-03T18:40:22.350Z,27.70
2022-12-03T18:43:16.290Z,30.20
2022-12-03T18:46:04.369Z,32.08
2022-12-03T18:48:50.064Z,31.23
2022-12-03T18:51:35.657Z,29.33
2022-12-03T18:54:21.543Z,30.67
2022-12-03T18:57:07.872Z,32.88
2022-12-03T18:59:56.187Z,30.30
2022-12-03T19:05:47.567Z,28.17
2022-12-03T19:08:33.033Z,28.33
2022-12-03T19:11:18.910Z,27.17
2022-12-03T19:14:04.370Z,28.23
2022-12-03T19:16:50.305Z,26.20
2022-12-03T19:19:36.855Z,25.70
2022-12-03T19:22:23.631Z,25.73
2022-12-03T19:25:09.680Z,25.80
2022-12-03T19:27:56.987Z,25.05
2022-12-03T19:30:43.145Z,27.90
2022-12-03T19:33:29.736Z,28.17
2022-12-03T19:36:28.317Z,28.08
2022-12-03T19:39:19.476Z,26.60
2022-12-03T19:42:04.977Z,26.63
2022-12-03T19:44:50.581Z,27.02
2022-12-03T19:47:37.020Z,28.67
2022-12-03T19:50:23.699Z,28.42
2022-12-03T19:53:09.752Z,26.38
2022-12-03T19:56:14.981Z,26.90
2022-12-03T19:59:20.859Z,25.80
2022-12-03T20:02:06.878Z,27.05
2022-12-03T20:04:52.522Z,25.35
2022-12-03T20:07:38.208Z,25.95
2022-12-03T20:10:25.161Z,24.55
2022-12-03T20:13:13.302Z,25.27
2022-12-03T20:16:03.853Z,24.98
2022-12-03T20:18:50.696Z,24.52
2022-12-03T20:21:39.082Z,24.63
2022-12-03T20:24:24.675Z,25.15
2022-12-03T20:27:10.074Z,24.70
2022-12-03T20:29:56.151Z,26.27
2022-12-03T20:32:45.440Z,24.38
2022-12-03T20:35:32.952Z,25.40
2022-12-03T20:38:18.968Z,25.52
2022-12-03T20:41:10.560Z,25.80
2022-12-03T20:43:56.706Z,25.90
2022-12-03T20:46:42.314Z,25.75
2022-12-03T20:49:28.045Z,26.58
2022-12-03T20:52:15.979Z,27.08
2022-12-03T20:55:01.347Z,26.15
2022-12-03T20:57:48.267Z,27.48
2022-12-03T21:00:34.206Z,25.95
2022-12-03T21:03:19.954Z,27.60
2022-12-03T21:06:06.285Z,26.77
2022-12-03T21:08:56.204Z,28.13
2022-12-03T21:11:43.125Z,26.50
2022-12-03T21:14:30.071Z,26.67
2022-12-03T21:17:19.608Z,26.98
2022-12-03T21:20:06.039Z,26.77
2022-12-03T21:22:51.966Z,26.45
2022-12-03T21:25:38.424Z,26.63
2022-12-03T21:28:24.363Z,30.73
2022-12-03T21:31:15.800Z,26.17
2022-12-03T21:34:02.825Z,25.85
2022-12-03T21:36:49.826Z,24.83
2022-12-03T21:39:35.748Z,24.70
2022-12-03T21:42:34.454Z,25.48
2022-12-03T21:45:24.967Z,23.60
2022-12-03T21:48:11.151Z,23.42
2022-12-03T21:51:02.064Z,22.45
2022-12-03T21:53:49.202Z,21.45
2022-12-03T21:56:34.987Z,21.98
2022-12-03T21:59:20.823Z,21.92
2022-12-03T22:02:06.645Z,21.73
2022-12-03T22:04:52.587Z,21.75
2022-12-03T22:07:39.382Z,26.95
2022-12-03T22:10:25.281Z,28.00
2022-12-03T22:13:12.901Z,26.48
2022-12-03T22:15:58.894Z,29.15
2022-12-03T22:18:45.007Z,25.85
2022-12-03T22:21:31.127Z,23.10
2022-12-03T22:24:18.783Z,22.95
2022-12-03T22:27:05.014Z,20.63
2022-12-03T22:29:50.851Z,20.60
2022-12-03T22:32:36.783Z,19.83
2022-12-03T22:35:22.424Z,19.00
2022-12-03T22:38:07.768Z,18.73
2022-12-03T22:40:53.227Z,18.95
2022-12-03T22:43:39.112Z,18.67
2022-12-03T22:46:24.889Z,19.20
2022-12-03T22:49:12.966Z,17.27
2022-12-03T22:51:58.466Z,17.98
2022-12-03T22:54:47.350Z,18.10
2022-12-03T22:57:32.908Z,17.38
2022-12-03T23:00:30.248Z,17.75
2022-12-03T23:03:16.140Z,18.88
2022-12-03T23:06:08.173Z,18.17
2022-12-03T23:08:54.315Z,18.55
2022-12-03T23:11:40.125Z,17.02
2022-12-03T23:14:26.059Z,18.48
2022-12-03T23:17:11.361Z,18.02
2022-12-03T23:19:57.280Z,17.23
2022-12-03T23:22:42.960Z,18.48
2022-12-03T23:25:28.447Z,17.98
2022-12-03T23:28:14.107Z,16.70
2022-12-03T23:30:59.964Z,16.25
2022-12-03T23:33:46.357Z,15.77
2022-12-03T23:36:33.212Z,16.30
2022-12-03T23:39:18.687Z,16.77
2022-12-03T23:42:04.564Z,16.13
2022-12-03T23:44:50.460Z,18.15
2022-12-03T23:47:35.825Z,16.70
2022-12-03T23:50:21.197Z,16.65
2022-12-03T23:53:06.635Z,17.40
2022-12-03T23:55:52.598Z,18.45
2022-12-03T23:58:38.671Z,17.63
